createdAt,value
2022-11-03T00:00:21.923Z,77.19
2022-11-03T00:00:57.326Z,77.94
2022-11-03T00:01:32.783Z,77.08
2022-11-03T00:02:08.043Z,77.39
2022-11-03T00:02:43.408Z,77.90
2022-11-03T00:03:19.158Z,77.63
2022-11-03T00:03:55.007Z,77.08
2022-11-03T00:04:30.755Z,77.19
2022-11-03T00:05:06.388Z,77.70
2022-11-03T00:05:42.948Z,77.90
2022-11-03T00:06:18.686Z,77.49
2022-11-03T00:06:54.491Z,77.73
2022-11-03T00:07:30.065Z,77.70
2022-11-03T00:08:05.862Z,77.83
2022-11-03T00:08:41.130Z,77.94
2022-11-03T00:09:16.338Z,77.19
2022-11-03T00:09:51.441Z,77.32
2022-11-03T00:10:26.722Z,77.39
2022-11-03T00:11:01.826Z,77.70
2022-11-03T00:11:36.991Z,77.70
2022-11-03T00:12:12.304Z,77.59
2022-11-03T00:12:47.705Z,77.80
2022-11-03T00:13:22.985Z,77.59
2022-11-03T00:13:58.097Z,77.94
2022-11-03T00:14:33.486Z,77.59
2022-11-03T00:15:08.983Z,77.49
2022-11-03T00:15:44.091Z,77.59
2022-11-03T00:16:19.309Z,77.80
2022-11-03T00:16:54.598Z,76.98
2022-11-03T00:17:29.797Z,76.98
2022-11-03T00:18:05.204Z,77.08
2022-11-03T00:18:40.603Z,76.98
2022-11-03T00:19:15.804Z,78.00
2022-11-03T00:19:51.004Z,77.08
2022-11-03T00:20:26.307Z,77.70
2022-11-03T00:21:01.402Z,77.19
2022-11-03T00:21:36.734Z,76.98
2022-11-03T00:22:12.010Z,76.98
2022-11-03T00:22:47.228Z,76.98
2022-11-03T00:23:22.738Z,76.98
2022-11-03T00:23:58.042Z,77.90
2022-11-03T00:24:33.539Z,76.98
2022-11-03T00:25:09.039Z,77.19
2022-11-03T00:25:44.704Z,77.39
2022-11-03T00:26:19.967Z,76.98
2022-11-03T00:26:55.446Z,77.19
2022-11-03T00:27:31.057Z,77.08
2022-11-03T00:28:06.544Z,76.98
2022-11-03T00:28:41.825Z,76.98
2022-11-03T00:29:16.922Z,76.88
2022-11-03T00:29:51.917Z,76.98
2022-11-03T00:30:27.027Z,77.08
2022-11-03T00:31:02.222Z,77.59
2022-11-03T00:31:37.533Z,77.39
2022-11-03T00:32:12.651Z,77.90
2022-11-03T00:32:47.848Z,77.59
2022-11-03T00:33:22.989Z,77.59
2022-11-03T00:33:57.872Z,77.19
2022-11-03T00:34:33.174Z,77.12
2022-11-03T00:35:08.495Z,77.29
2022-11-03T00:35:43.692Z,77.49
2022-11-03T00:36:18.921Z,77.63
2022-11-03T00:36:54.118Z,77.63
2022-11-03T00:37:29.527Z,77.39
2022-11-03T00:38:04.715Z,77.39
2022-11-03T00:38:39.764Z,77.49
2022-11-03T00:39:14.983Z,77.39
2022-11-03T00:39:50.189Z,77.80
2022-11-03T00:40:25.391Z,77.59
2022-11-03T00:41:00.695Z,77.53
2022-11-03T00:41:35.778Z,78.75
2022-11-03T00:42:11.082Z,77.63
2022-11-03T00:42:46.584Z,78.24
2022-11-03T00:43:21.971Z,78.14
2022-11-03T00:43:57.102Z,77.70
2022-11-03T00:44:32.485Z,77.73
2022-11-03T00:45:07.717Z,77.94
2022-11-03T00:45:42.998Z,78.41
2022-11-03T00:46:18.365Z,78.45
2022-11-03T00:46:53.621Z,78.45
2022-11-03T00:47:28.757Z,77.94
2022-11-03T00:48:04.160Z,78.11
2022-11-03T00:48:39.571Z,78.04
2022-11-03T00:49:14.899Z,78.24
2022-11-03T00:49:50.293Z,78.65
2022-11-03T00:50:25.513Z,79.16
2022-11-03T00:51:00.987Z,78.45
2022-11-03T00:51:36.392Z,78.14
2022-11-03T00:52:12.314Z,78.04
2022-11-03T00:52:48.300Z,78.04
2022-11-03T00:53:23.462Z,78.04
2022-11-03T00:53:59.044Z,78.86
2022-11-03T00:54:34.184Z,77.94
2022-11-03T00:55:09.181Z,78.45
2022-11-03T00:55:44.389Z,78.14
2022-11-03T00:56:19.510Z,78.04
2022-11-03T00:56:54.909Z,77.94
2022-11-03T00:57:30.226Z,78.04
2022-11-03T00:58:05.528Z,77.94
2022-11-03T00:58:41.020Z,78.04
2022-11-03T00:59:16.129Z,78.00
2022-11-03T00:59:51.375Z,77.94
2022-11-03T01:00:26.582Z,78.04
2022-11-03T01:01:01.912Z,78.24
2022-11-03T01:01:40.771Z,77.94
2022-11-03T01:02:12.177Z,77.83
2022-11-03T01:02:47.382Z,78.14
2022-11-03T01:03:22.579Z,78.14
2022-11-03T01:03:57.579Z,77.94
2022-11-03T01:04:32.782Z,78.24
2022-11-03T01:05:07.899Z,78.14
2022-11-03T01:05:43.314Z,79.16
2022-11-03T01:06:18.627Z,78.96
2022-11-03T01:06:54.044Z,78.24
2022-11-03T01:07:29.029Z,78.14
2022-11-03T01:08:04.253Z,78.14
2022-11-03T01:08:39.368Z,77.94
2022-11-03T01:09:14.555Z,77.94
2022-11-03T01:09:49.678Z,78.45
2022-11-03T01:10:24.994Z,78.14
2022-11-03T01:11:00.601Z,77.94
2022-11-03T01:11:35.879Z,78.96
2022-11-03T01:12:11.167Z,77.94
2022-11-03T01:12:46.359Z,78.65
2022-11-03T01:13:21.479Z,79.06
2022-11-03T01:13:56.790Z,78.65
2022-11-03T01:14:32.083Z,78.34
2022-11-03T01:15:07.281Z,78.65
2022-11-03T01:15:42.352Z,78.55
2022-11-03T01:16:17.619Z,78.96
2022-11-03T01:16:53.019Z,78.75
2022-11-03T01:17:28.330Z,79.06
2022-11-03T01:18:03.849Z,78.65
2022-11-03T01:18:39.040Z,78.55
2022-11-03T01:19:14.253Z,78.65
2022-11-03T01:19:49.345Z,78.86
2022-11-03T01:20:24.603Z,78.96
2022-11-03T01:20:59.904Z,78.55
2022-11-03T01:21:34.921Z,78.65
2022-11-03T01:22:10.973Z,79.27
2022-11-03T01:22:45.460Z,79.16
2022-11-03T01:23:20.667Z,78.65
2022-11-03T01:23:55.683Z,78.55
2022-11-03T01:24:31.075Z,79.27
2022-11-03T01:25:06.689Z,79.16
2022-11-03T01:25:41.979Z,78.96
2022-11-03T01:26:17.236Z,79.16
2022-11-03T01:26:52.423Z,79.37
2022-11-03T01:27:27.734Z,78.75
2022-11-03T23:00:58.880Z,98.72
2022-11-03T23:01:34.407Z,97.60
2022-11-03T23:02:09.373Z,97.90
2022-11-03T23:02:44.498Z,97.90
2022-11-03T23:03:20.279Z,98.93
2022-11-03T23:03:55.632Z,98.31
2022-11-03T23:04:30.762Z,98.41
2022-11-03T23:05:06.004Z,97.80
2022-11-03T23:05:41.396Z,97.90
2022-11-03T23:06:16.765Z,98.52
2022-11-03T23:06:52.098Z,97.90
2022-11-03T23:07:31.495Z,97.70
2022-11-03T23:10:06.099Z,98.52
2022-11-03T23:10:41.305Z,98.21
2022-11-03T23:11:16.348Z,98.41
2022-11-03T23:11:51.385Z,98.31
2022-11-03T23:12:26.870Z,98.21
2022-11-03T23:13:01.950Z,98.00
2022-11-03T23:13:37.536Z,98.16
2022-11-03T23:14:12.722Z,98.00
2022-11-03T23:14:47.718Z,98.00
2022-11-03T23:15:22.862Z,98.72
2022-11-03T23:15:57.977Z,98.00
2022-11-03T23:16:33.272Z,98.31
2022-11-03T23:17:08.398Z,97.70
2022-11-03T23:17:43.541Z,97.80
2022-11-03T23:18:19.427Z,97.65
2022-11-03T23:18:54.814Z,97.60
2022-11-03T23:19:30.676Z,97.55
2022-11-03T23:20:05.747Z,97.24
2022-11-03T23:20:40.842Z,97.45
2022-11-03T23:21:15.830Z,97.45
2022-11-03T23:21:51.062Z,97.55
2022-11-03T23:22:26.332Z,97.04
2022-11-03T23:23:01.464Z,97.19
2022-11-03T23:23:36.664Z,97.19
2022-11-03T23:24:12.144Z,96.68
2022-11-03T23:24:47.258Z,97.39
2022-11-03T23:25:22.486Z,97.34
2022-11-03T23:25:57.907Z,96.78
2022-11-03T23:26:33.146Z,96.33
2022-11-03T23:27:08.341Z,96.68
2022-11-03T23:27:43.767Z,96.94
2022-11-03T23:28:18.997Z,96.73
2022-11-03T23:28:54.222Z,96.84
2022-11-03T23:29:29.730Z,96.78
2022-11-03T23:30:05.132Z,97.04
2022-11-03T23:30:40.254Z,96.94
2022-11-03T23:31:15.565Z,96.88
2022-11-03T23:31:50.666Z,96.53
2022-11-03T23:32:26.229Z,97.14
2022-11-03T23:33:01.623Z,96.43
2022-11-03T23:33:37.283Z,97.14
2022-11-03T23:34:12.478Z,96.63
2022-11-03T23:34:47.692Z,96.94
2022-11-03T23:35:22.695Z,97.14
2022-11-03T23:35:57.918Z,97.04
2022-11-03T23:36:33.318Z,96.84
2022-11-03T23:37:08.639Z,96.53
2022-11-03T23:37:43.837Z,96.94
2022-11-03T23:38:19.259Z,96.94
2022-11-03T23:38:54.562Z,96.53
2022-11-03T23:39:29.904Z,96.63
2022-11-03T23:40:05.100Z,97.04
2022-11-03T23:40:40.407Z,97.29
2022-11-03T23:41:15.500Z,97.04
2022-11-03T23:41:51.025Z,96.53
2022-11-03T23:42:26.416Z,96.94
2022-11-03T23:43:01.807Z,96.84
2022-11-03T23:43:36.808Z,96.73
2022-11-03T23:44:12.351Z,96.43
2022-11-03T23:44:47.854Z,96.12
2022-11-03T23:45:23.176Z,96.43
2022-11-03T23:45:58.675Z,96.33
2022-11-03T23:46:33.896Z,96.53
2022-11-03T23:47:09.107Z,96.63
2022-11-03T23:47:44.333Z,96.43
2022-11-03T23:48:19.563Z,96.43
2022-11-03T23:48:55.192Z,96.43
2022-11-03T23:49:30.422Z,96.73
2022-11-03T23:50:05.746Z,96.12
2022-11-03T23:50:41.445Z,95.92
2022-11-03T23:51:16.574Z,95.61
2022-11-03T23:51:51.851Z,95.72
2022-11-03T23:52:26.771Z,95.92
2022-11-03T23:53:01.984Z,95.81
2022-11-03T23:53:37.342Z,95.81
2022-11-03T23:54:12.573Z,95.92
2022-11-03T23:54:47.912Z,95.92
2022-11-03T23:55:23.026Z,96.02
2022-11-03T23:55:58.729Z,96.02
2022-11-03T23:56:34.415Z,96.43
2022-11-03T23:57:09.748Z,96.43
2022-11-03T23:57:44.845Z,96.94
2022-11-03T23:58:19.961Z,96.63
2022-11-03T23:58:55.469Z,97.04
2022-11-03T23:59:30.850Z,97.04
